Time;durP1;ratioP1;P1;durP2;ratioP2;P2;SDS_P1;SDS_P2;PMS_P1;PMS_P2;Temp;Humidity;BMP_temperature;BMP_pressure;BME280_temperature;BME280_humidity;BME280_pressure;Samples;Min_cycle;Max_cycle;Signal;HPM_P1;HPM_P2
2022/09/05 00:00:11;;;;;;;4.05;1.98;;;15.20;21.10;;;;;;5145041;27;36599;-78
2022/09/05 00:02:47;;;;;;;2.40;1.92;;;15.20;21.70;;;;;;5148079;27;34150;-78
2022/09/05 00:05:30;;;;;;;2.83;1.80;;;15.20;21.50;;;;;;5148319;27;34351;-77
2022/09/05 00:08:17;;;;;;;2.17;2.00;;;15.10;22.10;;;;;;5150051;27;34276;-77
2022/09/05 00:11:07;;;;;;;1.83;1.73;;;15.10;21.60;;;;;;5161470;27;34399;-77
2022/09/05 00:13:41;;;;;;;2.25;1.67;;;15.00;23.30;;;;;;5134678;27;34142;-77
2022/09/05 00:16:28;;;;;;;3.08;2.10;;;15.00;21.50;;;;;;5134704;27;34117;-77
2022/09/05 00:19:21;;;;;;;2.33;2.13;;;15.00;23.20;;;;;;5151735;27;34188;-78
2022/09/05 00:22:22;;;;;;;2.30;2.10;;;15.00;23.10;;;;;;5134915;27;35813;-77
2022/09/05 00:25:19;;;;;;;3.50;1.88;;;14.90;23.20;;;;;;5137079;27;34415;-78
2022/09/05 00:28:04;;;;;;;3.40;2.00;;;14.90;23.60;;;;;;5152096;27;34180;-78
2022/09/05 00:31:03;;;;;;;3.22;1.90;;;14.80;23.00;;;;;;5152863;27;34194;-78
2022/09/05 00:33:41;;;;;;;5.47;2.08;;;14.80;23.80;;;;;;5158107;27;34698;-78
2022/09/05 00:36:32;;;;;;;4.40;1.70;;;14.80;22.30;;;;;;5161847;27;34258;-78
2022/09/05 00:39:05;;;;;;;2.13;1.77;;;14.70;22.70;;;;;;5151992;27;34156;-78
2022/09/05 00:41:31;;;;;;;2.55;1.90;;;14.70;21.80;;;;;;5152922;27;34454;-78
2022/09/05 00:44:00;;;;;;;2.72;1.98;;;14.70;21.90;;;;;;5153275;27;35597;-78
2022/09/05 00:46:30;;;;;;;1.70;1.60;;;14.60;22.00;;;;;;5135830;27;34179;-78
2022/09/05 00:49:19;;;;;;;2.45;2.10;;;14.60;22.30;;;;;;5153549;27;34173;-78
2022/09/05 00:51:56;;;;;;;2.10;1.90;;;14.60;24.00;;;;;;5171375;27;34374;-79
2022/09/05 00:54:46;;;;;;;3.53;1.83;;;14.60;22.80;;;;;;5118761;27;35633;-78
2022/09/05 00:57:43;;;;;;;2.97;1.77;;;14.60;23.10;;;;;;5152019;27;34097;-78
2022/09/05 01:00:14;;;;;;;2.28;2.08;;;14.50;24.30;;;;;;5148573;27;34062;-78
2022/09/05 01:03:11;;;;;;;4.03;2.10;;;14.50;22.80;;;;;;5145703;27;34097;-78
2022/09/05 01:06:05;;;;;;;3.53;2.10;;;14.50;24.20;;;;;;5149544;27;36092;-78
2022/09/05 01:08:56;;;;;;;5.15;2.05;;;14.50;24.50;;;;;;5135748;27;34323;-78
2022/09/05 01:11:48;;;;;;;3.42;2.20;;;14.40;24.10;;;;;;5131115;27;34143;-78
2022/09/05 01:14:36;;;;;;;6.00;2.08;;;14.40;23.40;;;;;;5152809;27;34554;-78
2022/09/05 01:17:32;;;;;;;2.45;2.25;;;14.40;24.20;;;;;;5170357;27;34987;-78
2022/09/05 01:20:13;;;;;;;2.97;1.73;;;14.40;24.30;;;;;;5150067;27;34419;-78
2022/09/05 01:23:03;;;;;;;4.15;2.15;;;14.30;23.00;;;;;;5152143;27;34610;-78
2022/09/05 01:25:54;;;;;;;2.40;2.10;;;14.30;22.90;;;;;;5152219;27;34542;-78
2022/09/05 01:28:34;;;;;;;3.83;2.00;;;14.30;23.50;;;;;;5152269;27;36078;-78
2022/09/05 01:31:27;;;;;;;2.42;2.00;;;14.20;23.10;;;;;;5151917;27;34287;-78
2022/09/05 01:34:07;;;;;;;2.60;2.22;;;14.20;24.10;;;;;;5151647;27;34160;-78
2022/09/05 01:37:00;;;;;;;3.05;2.38;;;14.20;23.30;;;;;;5134352;27;34466;-78
2022/09/05 01:39:49;;;;;;;2.20;2.00;;;14.20;23.80;;;;;;5170326;27;35445;-78
2022/09/05 01:42:36;;;;;;;3.13;2.10;;;14.10;24.40;;;;;;5153706;27;34339;-78
2022/09/05 01:45:14;;;;;;;2.85;2.20;;;14.10;24.40;;;;;;5169050;27;34039;-79
2022/09/05 01:48:02;;;;;;;3.47;1.77;;;14.10;23.10;;;;;;5136092;27;34055;-78
2022/09/05 01:51:03;;;;;;;2.55;1.98;;;14.00;24.50;;;;;;5152296;27;36004;-78
2022/09/05 01:53:49;;;;;;;3.58;1.85;;;14.00;24.00;;;;;;5138128;27;34257;-78
2022/09/05 01:56:34;;;;;;;2.58;1.80;;;14.00;24.20;;;;;;5154451;27;34014;-78
2022/09/05 01:59:22;;;;;;;2.35;1.85;;;14.00;23.30;;;;;;5118428;27;34566;-78
2022/09/05 02:02:17;;;;;;;2.13;1.92;;;13.90;24.40;;;;;;5150823;27;34134;-79
2022/09/05 02:05:14;;;;;;;2.42;1.95;;;13.90;24.40;;;;;;5135345;27;34297;-78
2022/09/05 02:08:02;;;;;;;2.33;1.83;;;13.90;24.10;;;;;;5130582;27;34118;-78
2022/09/05 02:11:03;;;;;;;7.75;2.13;;;13.90;24.50;;;;;;5151760;27;34564;-78
2022/09/05 02:13:56;;;;;;;4.22;2.15;;;13.80;24.70;;;;;;5119369;27;36977;-78
2022/09/05 02:16:43;;;;;;;5.82;2.08;;;13.80;24.40;;;;;;5115537;27;34135;-79
2022/09/05 02:19:19;;;;;;;4.05;3.63;;;13.80;24.10;;;;;;5114541;27;33702;-78
2022/09/05 02:22:06;;;;;;;4.38;2.70;;;13.80;23.30;;;;;;5132896;27;34613;-78
2022/09/05 02:24:36;;;;;;;2.38;2.17;;;13.70;24.20;;;;;;5150549;27;34353;-78
2022/09/05 02:27:25;;;;;;;4.75;2.05;;;13.70;23.20;;;;;;5131586;27;34262;-78
2022/09/05 02:30:16;;;;;;;5.78;2.17;;;13.70;23.70;;;;;;5130847;27;34248;-78
2022/09/05 02:32:55;;;;;;;2.15;1.85;;;13.70;24.70;;;;;;5131376;27;34130;-78
2022/09/05 02:35:30;;;;;;;3.20;1.80;;;13.60;23.90;;;;;;5114614;27;35853;-78
2022/09/05 02:38:10;;;;;;;2.70;1.90;;;13.60;23.40;;;;;;5113323;27;34502;-78
2022/09/05 02:40:45;;;;;;;4.18;1.85;;;13.60;23.70;;;;;;5130183;27;33973;-78
2022/09/05 02:43:46;;;;;;;2.33;1.98;;;13.60;23.60;;;;;;5113062;27;34072;-78
2022/09/05 02:46:25;;;;;;;2.13;1.90;;;13.60;24.60;;;;;;5115991;27;35786;-78
2022/09/05 02:49:03;;;;;;;2.00;1.90;;;13.60;23.90;;;;;;5129977;27;33998;-78
2022/09/05 02:51:38;;;;;;;1.98;1.83;;;13.60;23.50;;;;;;5112450;27;34108;-78
2022/09/05 02:54:10;;;;;;;6.20;2.08;;;13.60;23.90;;;;;;5129599;27;34430;-77
2022/09/05 02:56:55;;;;;;;2.17;1.98;;;13.60;23.30;;;;;;5148301;27;34335;-78
2022/09/05 02:59:44;;;;;;;2.05;1.88;;;13.50;24.70;;;;;;5129116;27;34027;-78
2022/09/05 03:02:30;;;;;;;2.40;2.20;;;13.50;24.10;;;;;;5147236;27;34335;-78
2022/09/05 03:05:22;;;;;;;3.47;2.35;;;13.50;25.20;;;;;;5165648;27;34218;-78
2022/09/05 03:08:22;;;;;;;6.45;1.85;;;13.50;25.00;;;;;;5147078;27;36167;-78
2022/09/05 03:11:14;;;;;;;2.63;1.70;;;13.40;25.00;;;;;;5137894;27;34095;-78
2022/09/05 03:14:10;;;;;;;2.45;2.00;;;13.40;24.10;;;;;;5151277;27;34358;-78
2022/09/05 03:17:06;;;;;;;5.32;2.05;;;13.40;25.00;;;;;;5151562;27;34463;-78
2022/09/05 03:19:56;;;;;;;4.20;2.00;;;13.40;24.70;;;;;;5150353;27;35861;-78
2022/09/05 03:22:53;;;;;;;2.00;1.63;;;13.40;25.10;;;;;;5132659;27;34154;-78
2022/09/05 03:25:47;;;;;;;2.17;1.98;;;13.40;25.30;;;;;;5144461;27;34080;-78
2022/09/05 03:28:47;;;;;;;2.90;1.98;;;13.30;25.20;;;;;;5149663;27;34016;-78
2022/09/05 03:31:41;;;;;;;4.88;1.95;;;13.30;25.40;;;;;;5121261;27;36208;-78
2022/09/05 03:34:37;;;;;;;2.60;1.65;;;13.30;25.40;;;;;;5131897;27;34284;-78
2022/09/05 03:37:37;;;;;;;2.22;1.90;;;13.20;25.20;;;;;;5148831;27;34112;-78
2022/09/05 03:40:38;;;;;;;3.50;2.13;;;13.20;25.70;;;;;;5116667;27;34071;-77
2022/09/05 03:43:28;;;;;;;2.38;1.95;;;13.20;25.70;;;;;;5134981;27;36615;-78
2022/09/05 03:46:25;;;;;;;2.30;2.10;;;13.20;25.30;;;;;;5148375;27;34193;-77
2022/09/05 03:49:06;;;;;;;3.47;2.03;;;13.20;25.20;;;;;;5149007;27;34299;-78
2022/09/05 03:51:49;;;;;;;4.03;2.20;;;13.10;24.30;;;;;;5131151;27;34328;-77
2022/09/05 03:54:42;;;;;;;2.50;1.92;;;13.10;25.40;;;;;;5131632;27;36001;-77
2022/09/05 03:57:27;;;;;;;2.20;2.00;;;13.10;25.70;;;;;;5130256;27;34148;-78
2022/09/05 04:00:19;;;;;;;3.15;1.85;;;13.10;25.10;;;;;;5146477;27;34181;-77
2022/09/05 04:03:08;;;;;;;3.03;1.83;;;13.10;25.60;;;;;;5145237;27;34149;-77
2022/09/05 04:05:38;;;;;;;2.53;2.33;;;13.00;24.20;;;;;;5147806;27;35697;-78
2022/09/05 04:08:14;;;;;;;4.85;2.08;;;13.00;24.10;;;;;;5148270;27;34125;-77
2022/09/05 04:10:59;;;;;;;2.35;2.00;;;13.00;24.20;;;;;;5147659;27;34023;-77
2022/09/05 04:13:32;;;;;;;4.97;2.42;;;13.00;24.60;;;;;;5166564;27;34403;-77
2022/09/05 04:16:06;;;;;;;7.93;2.25;;;12.90;23.80;;;;;;5146462;27;35822;-77
2022/09/05 04:18:40;;;;;;;2.72;2.03;;;12.90;24.00;;;;;;5147570;27;34107;-77
2022/09/05 04:21:17;;;;;;;3.60;2.10;;;12.90;24.20;;;;;;5147377;27;34174;-77
2022/09/05 04:23:59;;;;;;;4.47;1.90;;;12.80;24.40;;;;;;5147459;27;34513;-77
2022/09/05 04:26:58;;;;;;;2.60;2.13;;;12.80;24.60;;;;;;5146512;27;35624;-77
2022/09/05 04:29:39;;;;;;;2.80;1.90;;;12.80;25.30;;;;;;5147130;27;34051;-77
2022/09/05 04:32:26;;;;;;;2.45;2.25;;;12.80;24.80;;;;;;5147493;27;34329;-77
2022/09/05 04:35:13;;;;;;;2.30;2.10;;;12.80;25.40;;;;;;5146093;27;34089;-77
2022/09/05 04:38:03;;;;;;;3.58;2.03;;;12.80;24.80;;;;;;5143252;27;35735;-77
2022/09/05 04:40:36;;;;;;;2.08;1.65;;;12.80;25.40;;;;;;5143236;27;34309;-77
2022/09/05 04:43:08;;;;;;;2.97;1.65;;;12.80;24.30;;;;;;5128951;27;34147;-77
2022/09/05 04:45:47;;;;;;;8.65;2.30;;;12.70;24.00;;;;;;5112689;27;34537;-77
2022/09/05 04:48:21;;;;;;;2.22;2.03;;;12.70;24.30;;;;;;5131418;27;34098;-77
2022/09/05 04:51:01;;;;;;;3.33;2.00;;;12.70;24.40;;;;;;5129896;27;34236;-77
2022/09/05 04:53:53;;;;;;;2.22;2.03;;;12.60;24.70;;;;;;5147829;27;34084;-77
2022/09/05 04:56:26;;;;;;;2.35;1.90;;;12.70;24.40;;;;;;5136016;27;34462;-77
2022/09/05 04:59:01;;;;;;;2.40;2.20;;;12.60;24.30;;;;;;5149681;27;36688;-77
2022/09/05 05:01:37;;;;;;;2.42;1.98;;;12.60;24.40;;;;;;5151596;27;34262;-77
2022/09/05 05:04:07;;;;;;;4.47;2.28;;;12.60;24.50;;;;;;5149808;27;34259;-77
2022/09/05 05:06:43;;;;;;;2.22;2.03;;;12.60;24.40;;;;;;5133376;27;34513;-77
2022/09/05 05:09:44;;;;;;;4.13;2.03;;;12.60;24.60;;;;;;5149828;27;35499;-77
2022/09/05 05:12:45;;;;;;;4.10;2.38;;;12.60;25.90;;;;;;5137970;27;34193;-76
2022/09/05 05:15:16;;;;;;;3.83;2.10;;;12.50;26.10;;;;;;5134055;27;34200;-76
2022/09/05 05:18:04;;;;;;;2.83;2.20;;;12.50;24.40;;;;;;5126067;27;34042;-77
2022/09/05 05:20:42;;;;;;;2.45;2.15;;;12.50;26.00;;;;;;5162487;27;34627;-77
2022/09/05 05:23:15;;;;;;;6.18;2.05;;;12.50;25.40;;;;;;5149812;27;34070;-77
2022/09/05 05:25:48;;;;;;;4.13;2.00;;;12.50;24.50;;;;;;5150180;27;34169;-77
2022/09/05 05:28:46;;;;;;;2.42;2.10;;;12.60;25.00;;;;;;5150706;27;34121;-77
2022/09/05 05:31:22;;;;;;;2.35;1.80;;;12.60;24.90;;;;;;5149529;27;35646;-76
2022/09/05 05:33:51;;;;;;;2.42;2.08;;;12.60;24.60;;;;;;5132901;27;34228;-77
2022/09/05 05:36:24;;;;;;;5.70;2.40;;;12.60;24.50;;;;;;5132667;27;34154;-77
2022/09/05 05:39:06;;;;;;;2.55;1.80;;;12.60;24.70;;;;;;5148788;27;34434;-76
2022/09/05 05:41:44;;;;;;;3.65;2.20;;;12.60;25.50;;;;;;5149476;27;36332;-77
2022/09/05 05:44:14;;;;;;;5.22;2.10;;;12.60;25.10;;;;;;5115354;27;33741;-77
2022/09/05 05:46:46;;;;;;;2.28;2.17;;;12.60;24.70;;;;;;5132436;27;35112;-75
2022/09/05 05:49:42;;;;;;;2.20;2.00;;;12.60;24.40;;;;;;5149865;27;33995;-76
2022/09/05 05:52:36;;;;;;;3.75;2.08;;;12.70;26.20;;;;;;5136182;27;35357;-76
2022/09/05 05:55:36;;;;;;;2.95;2.55;;;12.70;26.40;;;;;;5136168;27;34011;-77
2022/09/05 05:58:20;;;;;;;2.40;2.20;;;12.70;26.50;;;;;;5154848;27;34389;-77
2022/09/05 06:01:26;;;;;;;3.97;2.50;;;12.80;25.40;;;;;;5149374;27;34260;-76
2022/09/05 06:04:22;;;;;;;5.03;3.10;;;12.80;27.20;;;;;;5122114;27;35870;-77
2022/09/05 06:07:10;;;;;;;6.00;3.08;;;12.90;27.00;;;;;;5142936;27;34219;-77
2022/09/05 06:10:07;;;;;;;3.47;3.05;;;13.00;26.10;;;;;;5160690;27;34165;-77
2022/09/05 06:13:12;;;;;;;4.40;2.88;;;13.10;27.70;;;;;;5143103;27;34522;-77
2022/09/05 06:16:04;;;;;;;4.22;3.17;;;13.30;28.40;;;;;;5122368;27;35818;-76
2022/09/05 06:19:01;;;;;;;5.43;3.42;;;13.90;26.10;;;;;;5149035;27;34206;-77
2022/09/05 06:21:54;;;;;;;5.63;3.42;;;14.80;25.10;;;;;;5148897;27;34121;-76
2022/09/05 06:24:46;;;;;;;4.40;2.80;;;15.80;23.20;;;;;;5167766;27;34212;-76
2022/09/05 06:27:42;;;;;;;3.88;2.70;;;16.60;20.80;;;;;;5148199;27;36386;-77
2022/09/05 06:30:19;;;;;;;2.83;2.35;;;17.20;20.20;;;;;;5148650;27;34196;-77
2022/09/05 06:33:09;;;;;;;6.28;2.70;;;17.50;18.70;;;;;;5149378;27;34268;-77
2022/09/05 06:35:52;;;;;;;3.53;2.83;;;17.70;19.10;;;;;;5148735;27;34139;-77
2022/09/05 06:38:53;;;;;;;3.45;2.78;;;17.70;19.50;;;;;;5148372;27;35651;-77
2022/09/05 06:41:39;;;;;;;4.15;2.70;;;17.90;19.70;;;;;;5134478;27;34117;-77
2022/09/05 06:44:33;;;;;;;7.65;2.38;;;18.10;19.50;;;;;;5165559;27;34121;-77
2022/09/05 06:47:05;;;;;;;3.22;2.50;;;18.30;19.60;;;;;;5167870;27;34390;-77
2022/09/05 06:49:49;;;;;;;9.13;2.78;;;18.30;19.20;;;;;;5169303;27;35823;-77
2022/09/05 06:52:39;;;;;;;4.35;2.50;;;18.20;19.40;;;;;;5169276;27;34210;-77
2022/09/05 06:55:34;;;;;;;2.63;2.42;;;18.00;20.10;;;;;;5150146;27;34123;-77
2022/09/05 06:58:29;;;;;;;2.63;2.40;;;18.00;20.30;;;;;;5187627;27;34407;-77
2022/09/05 07:00:58;;;;;;;2.88;2.47;;;18.00;20.70;;;;;;5168792;27;35791;-78
2022/09/05 07:03:56;;;;;;;3.97;2.47;;;18.00;20.60;;;;;;5178753;27;34152;-78
2022/09/05 07:06:59;;;;;;;4.03;2.90;;;18.10;21.20;;;;;;5148863;27;34512;-78
2022/09/05 07:09:49;;;;;;;3.78;2.50;;;18.10;20.70;;;;;;5149515;27;34153;-78
2022/09/05 07:12:25;;;;;;;2.90;2.60;;;18.10;21.20;;;;;;5152169;27;34583;-78
2022/09/05 07:15:11;;;;;;;2.63;2.42;;;18.10;21.20;;;;;;5138862;27;34319;-79
2022/09/05 07:18:06;;;;;;;2.92;2.60;;;18.20;21.60;;;;;;5155832;27;34349;-79
2022/09/05 07:20:47;;;;;;;2.70;2.50;;;18.30;22.00;;;;;;5153084;27;34230;-78
2022/09/05 07:23:43;;;;;;;3.15;2.55;;;18.30;21.60;;;;;;5149999;27;35929;-78
2022/09/05 07:26:10;;;;;;;3.88;2.55;;;18.20;22.10;;;;;;5149651;27;34239;-79
2022/09/05 07:28:41;;;;;;;2.88;2.60;;;18.30;21.40;;;;;;5151080;27;34328;-79
2022/09/05 07:31:16;;;;;;;2.75;2.50;;;18.30;21.30;;;;;;5165376;27;34127;-78
2022/09/05 07:33:45;;;;;;;3.42;2.92;;;18.40;21.60;;;;;;5150269;27;35920;-79
2022/09/05 07:36:18;;;;;;;3.05;2.78;;;18.50;21.30;;;;;;5150936;27;34194;-79
2022/09/05 07:38:49;;;;;;;2.30;2.10;;;18.50;21.50;;;;;;5150133;27;34150;-78
2022/09/05 07:41:24;;;;;;;2.97;2.45;;;18.60;21.30;;;;;;5149221;27;34139;-79
2022/09/05 07:43:56;;;;;;;4.47;2.30;;;18.60;21.80;;;;;;5150392;27;36007;-79
2022/09/05 07:46:29;;;;;;;3.10;2.78;;;18.70;21.60;;;;;;5118397;27;33965;-78
2022/09/05 07:49:11;;;;;;;3.05;2.35;;;18.70;21.10;;;;;;5149203;27;34159;-78
2022/09/05 07:51:44;;;;;;;3.40;2.67;;;18.70;22.00;;;;;;5132831;27;34460;-79
2022/09/05 07:54:19;;;;;;;2.88;2.60;;;18.90;21.50;;;;;;5158127;27;34405;-78
2022/09/05 07:56:58;;;;;;;3.80;2.63;;;19.00;21.40;;;;;;5148127;27;34062;-78
2022/09/05 07:59:27;;;;;;;3.28;2.38;;;19.00;20.80;;;;;;5149106;27;34387;-78
2022/09/05 08:01:55;;;;;;;3.03;2.67;;;19.10;21.20;;;;;;5147667;27;34546;-78
2022/09/05 08:04:28;;;;;;;2.85;2.53;;;19.20;20.70;;;;;;5148056;27;36287;-78
2022/09/05 08:07:00;;;;;;;4.65;2.47;;;19.30;21.20;;;;;;5147307;27;34139;-78
2022/09/05 08:09:46;;;;;;;3.00;2.50;;;19.40;20.80;;;;;;5147688;27;34158;-78
2022/09/05 08:12:18;;;;;;;4.07;2.38;;;19.40;20.40;;;;;;5147850;27;34059;-78
2022/09/05 08:15:04;;;;;;;3.95;2.33;;;19.60;20.50;;;;;;5157769;27;35100;-77
2022/09/05 08:17:34;;;;;;;3.13;2.22;;;19.70;20.90;;;;;;5130453;27;34362;-78
2022/09/05 08:20:35;;;;;;;2.75;2.55;;;19.80;20.30;;;;;;5145280;27;35232;-78
2022/09/05 08:23:09;;;;;;;2.40;2.20;;;20.10;19.70;;;;;;5146283;27;34416;-78
2022/09/05 08:25:46;;;;;;;2.50;2.30;;;20.30;19.70;;;;;;5129387;27;35891;-78
2022/09/05 08:28:25;;;;;;;2.60;2.20;;;20.50;19.50;;;;;;5148215;27;34070;-77
2022/09/05 08:31:03;;;;;;;3.28;2.50;;;20.90;19.80;;;;;;5116989;27;34000;-77
2022/09/05 08:33:35;;;;;;;4.57;2.40;;;21.30;19.10;;;;;;5141665;27;34417;-78
2022/09/05 08:36:35;;;;;;;2.35;1.90;;;21.60;18.70;;;;;;5147605;27;35458;-77
2022/09/05 08:39:03;;;;;;;2.63;2.03;;;22.00;18.50;;;;;;5136078;27;34222;-80
2022/09/05 08:41:44;;;;;;;3.10;2.10;;;22.30;17.80;;;;;;5116824;27;34193;-78
2022/09/05 08:44:37;;;;;;;2.35;2.10;;;22.50;16.20;;;;;;5134271;27;34120;-78
2022/09/05 08:47:26;;;;;;;4.07;1.98;;;22.70;15.10;;;;;;5131256;27;35877;-77
2022/09/05 08:50:09;;;;;;;2.00;1.80;;;22.90;16.10;;;;;;5150458;27;34075;-77
2022/09/05 08:53:04;;;;;;;2.00;1.80;;;23.10;15.00;;;;;;5129772;27;34277;-77
2022/09/05 08:55:46;;;;;;;4.38;2.15;;;23.20;15.80;;;;;;5133936;27;34441;-78
2022/09/05 08:58:42;;;;;;;3.78;2.00;;;23.30;14.50;;;;;;5146363;27;35581;-77
2022/09/05 09:01:32;;;;;;;4.22;1.63;;;23.40;14.30;;;;;;5149856;27;34311;-77
2022/09/05 09:04:38;;;;;;;2.05;1.80;;;23.50;15.40;;;;;;5150002;27;34142;-77
2022/09/05 09:07:29;;;;;;;2.55;1.65;;;23.80;14.30;;;;;;5135946;27;34073;-78
2022/09/05 09:10:23;;;;;;;4.32;1.77;;;24.00;13.80;;;;;;5137028;27;34357;-78
2022/09/05 09:13:04;;;;;;;2.45;1.88;;;24.20;12.20;;;;;;5123564;27;34254;-78
2022/09/05 09:15:42;;;;;;;3.03;1.92;;;24.40;12.60;;;;;;5129087;27;34129;-77
2022/09/05 09:18:15;;;;;;;2.00;1.80;;;24.60;12.80;;;;;;5135578;27;34480;-78
2022/09/05 09:20:51;;;;;;;3.17;1.83;;;24.80;14.10;;;;;;5160689;27;34980;-78
2022/09/05 09:23:43;;;;;;;2.53;1.77;;;25.00;11.90;;;;;;5130614;27;34463;-77
2022/09/05 09:26:15;;;;;;;5.18;1.63;;;25.20;10.00;;;;;;5167940;27;34410;-77
2022/09/05 09:29:02;;;;;;;2.15;1.70;;;25.30;12.30;;;;;;5150123;27;34172;-78
2022/09/05 09:31:51;;;;;;;2.70;1.85;;;25.50;11.80;;;;;;5134681;27;35871;-78
2022/09/05 09:34:37;;;;;;;2.63;1.98;;;25.70;10.20;;;;;;5138200;27;34224;-77
2022/09/05 09:37:20;;;;;;;2.70;1.80;;;26.00;10.10;;;;;;5148714;27;34211;-77
2022/09/05 09:40:16;;;;;;;1.63;1.52;;;26.20;10.50;;;;;;5120874;27;34636;-77
2022/09/05 09:42:56;;;;;;;3.58;1.70;;;26.50;7.80;;;;;;5128675;27;35791;-78
2022/09/05 09:45:34;;;;;;;1.88;1.60;;;26.70;8.20;;;;;;5128926;27;34184;-77
2022/09/05 09:48:26;;;;;;;3.30;1.55;;;26.90;8.50;;;;;;5129165;27;34184;-79
2022/09/05 09:51:16;;;;;;;1.80;1.50;;;27.00;8.60;;;;;;5113762;27;34201;-77
2022/09/05 09:54:15;;;;;;;2.38;1.60;;;27.20;7.70;;;;;;5142285;27;35587;-78
2022/09/05 09:57:04;;;;;;;1.90;1.70;;;27.50;5.90;;;;;;5149185;27;34264;-78
2022/09/05 10:00:02;;;;;;;3.85;1.50;;;27.60;5.40;;;;;;5149115;27;34109;-77
2022/09/05 10:03:00;;;;;;;1.42;1.33;;;27.80;5.60;;;;;;5135330;27;34476;-77
2022/09/05 10:05:47;;;;;;;2.85;1.50;;;28.10;5.70;;;;;;5154587;27;35043;-77
2022/09/05 10:08:30;;;;;;;1.73;1.42;;;28.30;5.50;;;;;;5167877;27;34134;-77
2022/09/05 10:11:16;;;;;;;2.97;1.42;;;28.40;7.70;;;;;;5148905;27;34150;-77
2022/09/05 10:14:11;;;;;;;1.45;1.35;;;28.60;6.60;;;;;;5149289;27;34252;-77
2022/09/05 10:17:09;;;;;;;2.35;1.50;;;29.00;6.50;;;;;;5149759;27;36887;-77
2022/09/05 10:20:04;;;;;;;3.15;1.60;;;29.40;5.80;;;;;;5148629;27;34375;-77
2022/09/05 10:23:01;;;;;;;2.90;1.30;;;29.80;3.30;;;;;;5168228;27;34255;-75
2022/09/05 10:25:56;;;;;;;1.60;1.30;;;30.00;3.60;;;;;;5137065;27;34190;-78
2022/09/05 10:28:41;;;;;;;3.60;1.40;;;30.20;2.90;;;;;;5150844;27;35503;-78
2022/09/05 10:31:17;;;;;;;3.15;1.10;;;30.20;1.30;;;;;;5133157;27;34233;-78
2022/09/05 10:34:15;;;;;;;2.40;1.40;;;30.20;1.00;;;;;;5150303;27;34230;-77
2022/09/05 10:36:48;;;;;;;1.10;1.10;;;30.10;1.60;;;;;;5167586;27;34362;-77
2022/09/05 10:39:19;;;;;;;3.08;1.10;;;30.20;4.70;;;;;;5158503;27;35091;-78
2022/09/05 10:41:50;;;;;;;2.60;1.17;;;30.30;2.60;;;;;;5148792;27;34011;-78
2022/09/05 10:44:39;;;;;;;1.77;1.40;;;30.30;4.60;;;;;;5131549;27;34358;-77
2022/09/05 10:47:27;;;;;;;1.80;1.42;;;30.40;1.00;;;;;;5148702;27;35353;-77
2022/09/05 10:50:11;;;;;;;3.88;1.23;;;30.30;1.00;;;;;;5166718;27;34380;-77
2022/09/05 10:53:08;;;;;;;1.17;1.10;;;30.30;1.00;;;;;;5166693;27;34288;-77
2022/09/05 10:55:55;;;;;;;2.08;1.17;;;30.40;1.00;;;;;;5163029;27;34071;-78
2022/09/05 10:58:43;;;;;;;0.95;0.95;;;30.40;1.00;;;;;;5152568;27;34254;-78
2022/09/05 11:01:32;;;;;;;1.35;1.00;;;30.40;1.00;;;;;;5165382;27;34308;-77
2022/09/05 11:04:14;;;;;;;1.35;1.17;;;30.60;1.00;;;;;;5131520;27;34209;-79
2022/09/05 11:06:52;;;;;;;1.15;1.05;;;30.90;1.00;;;;;;5127988;27;34304;-78
2022/09/05 11:09:40;;;;;;;5.20;1.30;;;31.00;1.00;;;;;;5149115;27;34568;-78
2022/09/05 11:12:31;;;;;;;1.10;1.10;;;31.20;1.00;;;;;;5148117;27;36265;-79
2022/09/05 11:14:59;;;;;;;1.10;1.00;;;31.40;1.00;;;;;;5148650;27;34098;-77
2022/09/05 11:17:31;;;;;;;1.40;0.95;;;31.40;1.00;;;;;;5147899;27;34211;-77
2022/09/05 11:20:27;;;;;;;1.08;0.95;;;31.50;1.00;;;;;;5129983;27;34085;-77
2022/09/05 11:23:01;;;;;;;1.30;0.93;;;31.60;1.00;;;;;;5164194;27;34276;-78
2022/09/05 11:25:28;;;;;;;1.55;1.05;;;31.70;1.00;;;;;;5148477;27;34151;-77
2022/09/05 11:27:59;;;;;;;2.30;1.45;;;31.70;1.00;;;;;;5147856;27;34465;-77
2022/09/05 11:30:29;;;;;;;1.00;1.00;;;31.70;1.00;;;;;;5148548;27;34556;-77
2022/09/05 11:33:22;;;;;;;1.20;1.10;;;31.60;1.00;;;;;;5147981;27;35751;-78
2022/09/05 11:35:52;;;;;;;0.90;0.90;;;31.50;1.00;;;;;;5148070;27;34306;-77
2022/09/05 11:38:44;;;;;;;3.42;1.00;;;31.40;1.00;;;;;;5157779;27;34315;-78
2022/09/05 11:41:40;;;;;;;1.23;0.90;;;31.40;1.00;;;;;;5138973;27;34471;-77
2022/09/05 11:44:35;;;;;;;2.45;0.90;;;31.30;1.00;;;;;;5147104;27;35982;-77
2022/09/05 11:47:29;;;;;;;1.92;0.95;;;31.30;1.00;;;;;;5130549;27;34091;-77
2022/09/05 11:50:26;;;;;;;1.20;1.10;;;31.40;1.00;;;;;;5122079;27;34142;-77
2022/09/05 11:53:21;;;;;;;1.02;1.00;;;31.40;1.00;;;;;;5146120;27;34130;-77
2022/09/05 11:56:14;;;;;;;2.20;0.93;;;31.60;1.00;;;;;;5150285;27;34487;-77
2022/09/05 11:59:10;;;;;;;2.33;1.08;;;31.70;1.00;;;;;;5140619;27;34313;-77
2022/09/05 12:02:05;;;;;;;2.03;0.93;;;31.70;1.00;;;;;;5147266;27;34316;-76
2022/09/05 12:04:49;;;;;;;2.97;1.00;;;31.90;1.00;;;;;;5120950;27;34164;-77
2022/09/05 12:07:41;;;;;;;1.02;0.90;;;31.80;1.00;;;;;;5133725;27;35978;-77
2022/09/05 12:10:17;;;;;;;0.90;0.90;;;31.90;1.00;;;;;;5151537;27;34160;-77
2022/09/05 12:13:15;;;;;;;1.63;1.10;;;31.90;1.00;;;;;;5146675;27;34364;-77
2022/09/05 12:15:45;;;;;;;1.80;0.93;;;31.80;1.00;;;;;;5138117;27;34182;-77
2022/09/05 12:18:42;;;;;;;2.80;1.10;;;31.70;1.00;;;;;;5133603;27;37050;-77
2022/09/05 12:21:38;;;;;;;1.08;0.98;;;31.60;1.00;;;;;;5147747;27;34254;-76
2022/09/05 12:24:21;;;;;;;2.25;1.00;;;31.60;1.00;;;;;;5168097;27;34275;-77
2022/09/05 12:26:59;;;;;;;1.23;1.00;;;31.60;1.00;;;;;;5150813;27;34619;-77
2022/09/05 12:29:29;;;;;;;1.55;0.93;;;31.50;1.00;;;;;;5150269;27;36438;-76
2022/09/05 12:31:59;;;;;;;2.13;1.05;;;31.50;1.00;;;;;;5130119;27;34182;-77
2022/09/05 12:34:51;;;;;;;1.65;1.05;;;31.50;1.00;;;;;;5137974;27;34632;-77
2022/09/05 12:37:31;;;;;;;2.33;1.00;;;31.30;1.00;;;;;;5143411;27;34264;-77
2022/09/05 12:40:16;;;;;;;2.25;1.05;;;31.30;1.00;;;;;;5133394;27;35838;-77
2022/09/05 12:42:52;;;;;;;2.67;1.08;;;31.20;1.00;;;;;;5169568;27;34159;-76
2022/09/05 12:45:39;;;;;;;1.33;1.20;;;31.10;1.00;;;;;;5169324;27;34069;-77
2022/09/05 12:49:10;;;;;;;1.30;1.20;;;31.20;1.00;;;;;;5156327;27;34283;-77
2022/09/05 12:51:21;;;;;;;1.00;0.90;;;31.20;1.00;;;;;;5121551;27;34404;-77
2022/09/05 12:53:54;;;;;;;5.15;1.25;;;31.10;1.00;;;;;;5147809;27;34143;-77
2022/09/05 12:56:40;;;;;;;1.30;1.05;;;31.20;1.00;;;;;;5129588;27;34220;-77
2022/09/05 12:59:16;;;;;;;1.38;1.02;;;31.20;1.00;;;;;;5129199;27;34120;-76
2022/09/05 13:01:43;;;;;;;1.40;1.13;;;31.30;1.00;;;;;;5112669;27;35765;-77
2022/09/05 13:04:21;;;;;;;1.42;1.10;;;31.40;1.00;;;;;;5112512;27;34174;-77
2022/09/05 13:06:55;;;;;;;1.00;0.98;;;31.60;1.00;;;;;;5129142;27;34177;-77
2022/09/05 13:09:28;;;;;;;1.13;1.10;;;31.90;1.00;;;;;;5129554;27;34537;-78
2022/09/05 13:12:19;;;;;;;0.88;0.80;;;32.00;1.00;;;;;;5147781;27;35113;-77
2022/09/05 13:15:04;;;;;;;0.80;0.80;;;32.10;1.00;;;;;;5129102;27;34308;-77
2022/09/05 13:17:49;;;;;;;0.70;0.70;;;32.20;1.00;;;;;;5137391;27;34040;-78
2022/09/05 13:23:29;;;;;;;0.95;0.85;;;32.30;1.00;;;;;;5165092;27;34720;-77
2022/09/05 13:26:16;;;;;;;0.77;0.77;;;32.30;1.00;;;;;;5145055;27;34228;-77
2022/09/05 13:28:57;;;;;;;2.08;1.42;;;32.40;1.00;;;;;;5158108;27;34097;-79
2022/09/05 13:31:55;;;;;;;0.90;0.90;;;32.50;1.00;;;;;;5151677;27;34372;-79
2022/09/05 13:34:36;;;;;;;1.45;0.98;;;32.40;1.00;;;;;;5130497;27;36471;-79
2022/09/05 13:37:19;;;;;;;1.60;0.90;;;32.40;1.00;;;;;;5130073;27;34473;-78
2022/09/05 13:39:53;;;;;;;1.10;1.10;;;32.40;1.00;;;;;;5148860;27;34180;-80
2022/09/05 13:42:23;;;;;;;1.13;0.82;;;32.50;1.00;;;;;;5129720;27;34260;-77
2022/09/05 13:44:54;;;;;;;1.90;1.58;;;32.60;1.00;;;;;;5111675;27;35591;-79
2022/09/05 13:47:55;;;;;;;1.05;1.05;;;32.70;1.00;;;;;;5141336;27;34477;-79
2022/09/05 13:50:35;;;;;;;2.10;1.10;;;32.80;1.00;;;;;;5118277;27;34084;-79
2022/09/05 13:53:25;;;;;;;1.10;1.00;;;33.00;1.00;;;;;;5130402;27;34197;-78
2022/09/05 13:55:54;;;;;;;3.50;1.02;;;33.00;1.00;;;;;;5166634;27;34814;-76
2022/09/05 13:58:41;;;;;;;2.15;0.95;;;33.00;1.00;;;;;;5145806;27;34205;-79
2022/09/05 14:01:32;;;;;;;1.70;1.10;;;33.00;1.00;;;;;;5138716;27;34167;-75
2022/09/05 14:04:25;;;;;;;1.88;1.10;;;33.00;1.00;;;;;;5145482;27;34589;-78
2022/09/05 14:07:17;;;;;;;3.42;1.00;;;32.90;1.00;;;;;;5135059;27;36672;-77
2022/09/05 14:10:06;;;;;;;1.45;1.20;;;32.90;1.00;;;;;;5144154;27;34322;-77
2022/09/05 14:13:03;;;;;;;1.10;1.08;;;33.00;1.00;;;;;;5120986;27;34135;-76
2022/09/05 14:15:51;;;;;;;1.08;0.98;;;32.90;1.00;;;;;;5111045;27;34406;-77
2022/09/05 14:21:14;;;;;;;1.00;0.90;;;32.80;1.00;;;;;;5108812;27;35202;-78
2022/09/05 14:21:28;;;;;;;1.95;1.00;;;32.70;1.00;;;;;;5124847;27;34274;-78
2022/09/05 14:24:02;;;;;;;1.38;1.08;;;32.50;1.00;;;;;;5122401;27;34249;-77